createdAt,value
2022-07-26T08:54:47.272Z,58.901001
2022-07-26T08:56:06.712Z,58.931999
2022-07-26T08:57:07.563Z,58.992001
2022-07-26T08:58:17.172Z,59.055
2022-07-26T08:59:26.759Z,58.959999
2022-07-26T09:00:34.517Z,58.855999
2022-07-26T09:01:43.342Z,58.778
2022-07-26T09:02:52.995Z,58.869999
2022-07-26T09:04:01.941Z,58.759998
2022-07-26T09:05:10.313Z,58.832001
2022-07-26T09:06:18.923Z,58.764999
2022-07-26T09:07:27.564Z,58.758999
2022-07-26T09:08:37.190Z,58.081001
2022-07-26T09:09:45.805Z,58.318001
2022-07-26T09:10:55.392Z,58.130001
2022-07-26T09:12:05.003Z,58.186001
2022-07-26T09:13:13.602Z,58.014
2022-07-26T09:14:22.210Z,58.119999
2022-07-26T09:15:30.818Z,57.951
2022-07-26T09:16:40.452Z,58.054001
2022-07-26T09:17:50.035Z,57.962002
2022-07-26T09:18:57.623Z,57.856998
2022-07-26T09:20:05.214Z,57.896
2022-07-26T09:21:14.813Z,57.889999
2022-07-26T09:22:24.401Z,57.985001
2022-07-26T09:23:33.002Z,58.073002
2022-07-26T09:24:41.591Z,57.812
2022-07-26T09:25:50.170Z,57.681999
2022-07-26T09:26:59.856Z,57.780998
2022-07-26T09:28:07.472Z,57.831001
2022-07-26T09:29:16.060Z,57.716999
2022-07-26T09:30:25.656Z,57.66
2022-07-26T09:31:34.350Z,57.401001
2022-07-26T09:32:42.941Z,57.258999
2022-07-26T09:33:52.251Z,57.411999
2022-07-26T09:35:01.819Z,57.313
2022-07-26T09:36:12.392Z,57.34
2022-07-26T09:37:19.974Z,57.271
2022-07-26T09:38:28.555Z,57.203999
2022-07-26T09:39:38.144Z,57.002998
2022-07-26T09:40:46.940Z,56.891998
2022-07-26T09:42:17.741Z,56.851002
2022-07-26T09:43:07.831Z,56.937
2022-07-26T09:44:16.378Z,57.02
2022-07-26T09:45:25.967Z,57.07
2022-07-26T09:46:34.613Z,57.110001
2022-07-26T09:47:42.162Z,57.200001
2022-07-26T09:49:09.705Z,57.056999
2022-07-26T09:50:03.131Z,57.069
2022-07-26T09:51:12.921Z,57.008999
2022-07-26T09:52:22.506Z,56.952999
2022-07-26T09:53:31.078Z,56.994999
2022-07-26T09:54:40.682Z,56.91
2022-07-26T09:55:48.296Z,56.834
2022-07-26T09:56:55.908Z,56.782001
2022-07-26T09:58:05.493Z,56.77
2022-07-26T09:59:14.110Z,56.743
2022-07-26T10:00:23.711Z,56.756001
2022-07-26T10:01:33.379Z,56.745998
2022-07-26T10:02:42.026Z,56.679001
2022-07-26T10:03:51.583Z,56.678001
2022-07-26T10:04:58.165Z,56.722
2022-07-26T10:06:06.795Z,56.750999
2022-07-26T10:07:16.383Z,56.714001
2022-07-26T10:08:24.971Z,56.721001
2022-07-26T10:09:33.588Z,56.740002
2022-07-26T10:10:42.149Z,56.683998
2022-07-26T10:11:51.815Z,56.702
2022-07-26T10:13:01.373Z,56.692001
2022-07-26T10:14:09.172Z,56.713001
2022-07-26T10:15:18.561Z,56.707001
2022-07-26T10:16:28.191Z,56.719002
2022-07-26T10:17:37.746Z,56.758999
2022-07-26T10:18:46.384Z,56.785
2022-07-26T10:19:56.051Z,56.791
2022-07-26T10:21:04.613Z,56.751999
2022-07-26T10:22:14.217Z,56.751999
2022-07-26T10:23:21.886Z,56.784
2022-07-26T10:24:30.476Z,56.834
2022-07-26T10:25:40.089Z,56.826
2022-07-26T10:26:48.674Z,56.806999
2022-07-26T10:27:58.287Z,56.779999
2022-07-26T10:29:06.861Z,56.849998
2022-07-26T10:30:15.485Z,56.849998
2022-07-26T10:31:25.160Z,56.765999
2022-07-26T10:32:33.719Z,56.757999
2022-07-26T10:33:43.410Z,56.661999
2022-07-26T10:34:53.260Z,56.553001
2022-07-26T10:36:01.850Z,56.453999
2022-07-26T10:37:10.480Z,56.396999
2022-07-26T10:38:20.203Z,56.257999
2022-07-26T10:39:27.818Z,56.125
2022-07-26T10:40:36.396Z,56.125
2022-07-26T10:41:45.991Z,56.136002
2022-07-26T10:42:55.300Z,56.117001
2022-07-26T10:44:04.883Z,56.021
2022-07-26T10:45:13.474Z,55.984001
2022-07-26T10:46:22.096Z,56.050999
2022-07-26T10:47:34.963Z,55.898998
2022-07-26T10:48:40.296Z,55.872002
2022-07-26T10:49:48.946Z,55.841
2022-07-26T10:51:00.825Z,55.852001
2022-07-26T10:52:08.190Z,55.841999
2022-07-26T10:53:16.742Z,55.638
2022-07-26T10:54:26.344Z,55.757
2022-07-26T10:55:36.106Z,55.757
2022-07-26T10:56:45.697Z,55.566002
2022-07-26T10:57:53.352Z,55.566002
2022-07-26T10:59:01.958Z,55.527
2022-07-26T11:00:11.563Z,55.66
2022-07-26T11:01:20.199Z,55.685001
2022-07-26T11:02:29.033Z,55.749001
2022-07-26T11:03:38.787Z,55.563999
2022-07-26T11:04:46.336Z,55.383999
2022-07-26T11:05:56.255Z,55.200001
2022-07-26T11:07:03.851Z,55.104
2022-07-26T11:08:12.431Z,55.030998
2022-07-26T11:09:22.028Z,54.974998
2022-07-26T11:10:31.624Z,55.049
2022-07-26T11:11:46.264Z,55.162998
2022-07-26T11:12:51.824Z,55.122002
2022-07-26T11:14:00.411Z,55.116001
2022-07-26T11:15:10.001Z,55.178001
2022-07-26T11:16:18.702Z,55.164001
2022-07-26T11:17:28.323Z,55.226002
2022-07-26T11:18:37.974Z,55.244999
2022-07-26T11:19:46.749Z,55.171001
2022-07-26T11:20:55.366Z,55.159
2022-07-26T11:22:04.006Z,55.088001
2022-07-26T11:23:13.602Z,54.956001
2022-07-26T11:24:23.233Z,55.039001
2022-07-26T11:25:30.808Z,55.087002
2022-07-26T11:26:38.382Z,55.087002
2022-07-26T11:27:48.018Z,55.136002
2022-07-26T11:28:56.676Z,55.238998
2022-07-26T11:30:06.243Z,55.208
2022-07-26T11:31:14.859Z,55.075001
2022-07-26T11:32:24.467Z,55.105
2022-07-26T11:33:34.037Z,55.123001
2022-07-26T11:34:41.633Z,55.064999
2022-07-26T11:35:51.287Z,55.123001
2022-07-26T11:37:00.881Z,54.980999
2022-07-26T11:38:12.310Z,55.146
2022-07-26T11:39:19.133Z,55.02
2022-07-26T11:40:28.743Z,54.974998
2022-07-26T11:41:37.336Z,55.026001
2022-07-26T11:42:46.953Z,54.951
2022-07-26T11:44:01.959Z,54.907001
2022-07-26T11:45:06.858Z,54.881001
2022-07-26T11:46:16.488Z,54.577
2022-07-26T11:47:26.688Z,54.317001
2022-07-26T11:48:34.783Z,54.726002
2022-07-26T11:49:52.557Z,54.876999
2022-07-26T11:50:52.932Z,55.155998
2022-07-26T11:52:02.537Z,55.359001
2022-07-26T11:53:10.135Z,55.548
2022-07-26T11:54:18.763Z,55.588001
2022-07-26T11:55:28.373Z,55.727001
2022-07-26T11:56:35.976Z,55.744999
2022-07-26T11:57:45.592Z,55.821999
2022-07-26T11:58:53.220Z,55.949001
2022-07-26T12:00:01.909Z,56.044998
2022-07-26T12:01:11.417Z,56.159
2022-07-26T12:02:20.095Z,56.113998
2022-07-26T12:03:27.684Z,56.044998
2022-07-26T12:04:38.737Z,56.183998
2022-07-26T12:05:48.279Z,56.345001
2022-07-26T12:06:56.846Z,56.359001
2022-07-26T12:08:06.465Z,56.436001
2022-07-26T12:09:16.017Z,56.571999
2022-07-26T12:10:25.127Z,56.393002
2022-07-26T12:11:32.757Z,56.737
2022-07-26T12:12:41.742Z,56.845001
2022-07-26T12:13:55.589Z,56.787998
2022-07-26T12:15:00.864Z,56.766998
2022-07-26T12:16:11.270Z,56.826
2022-07-26T12:17:20.215Z,56.609001
2022-07-26T12:18:27.873Z,56.845001
2022-07-26T12:19:37.490Z,56.869999
2022-07-26T12:20:46.181Z,56.806999
2022-07-26T12:21:54.855Z,56.652
2022-07-26T12:23:04.673Z,56.639999
2022-07-26T12:24:14.376Z,56.513
2022-07-26T12:25:23.953Z,56.493999
2022-07-26T12:26:33.542Z,56.584
2022-07-26T12:27:42.307Z,56.493999
2022-07-26T12:28:51.964Z,56.487999
2022-07-26T12:30:00.899Z,56.367001
2022-07-26T12:31:10.748Z,56.384998
2022-07-26T12:32:19.184Z,56.373001
2022-07-26T12:33:27.783Z,56.277
2022-07-26T12:34:36.360Z,56.168999
2022-07-26T12:35:45.982Z,56.137001
2022-07-26T12:36:54.843Z,56.084999
2022-07-26T12:38:02.436Z,55.945999
2022-07-26T12:39:12.091Z,55.820999
2022-07-26T12:40:20.692Z,55.611
2022-07-26T12:41:29.282Z,55.719002
2022-07-26T12:42:37.897Z,55.765999
2022-07-26T12:43:49.112Z,55.771999
2022-07-26T12:44:58.208Z,55.797001
2022-07-26T12:46:05.953Z,55.855
2022-07-26T12:47:14.452Z,55.874001
2022-07-26T12:48:24.106Z,55.887001
2022-07-26T12:49:33.979Z,55.938999
2022-07-26T12:50:45.106Z,55.818001
2022-07-26T12:51:54.684Z,55.945
2022-07-26T12:53:03.363Z,55.905998
2022-07-26T12:54:13.658Z,55.803001
2022-07-26T12:55:22.147Z,55.771
2022-07-26T12:56:29.840Z,55.796001
2022-07-26T12:57:41.363Z,55.803001
2022-07-26T12:58:49.042Z,55.726002
2022-07-26T12:59:57.630Z,55.681999
2022-07-26T13:01:06.635Z,55.803001
2022-07-26T13:02:15.232Z,55.855
2022-07-26T13:03:25.204Z,55.904999
2022-07-26T13:04:34.307Z,55.827999
2022-07-26T13:05:42.908Z,55.974998
2022-07-26T13:06:53.323Z,55.867001
2022-07-26T13:08:03.952Z,55.855
2022-07-26T13:09:13.481Z,55.855
2022-07-26T13:10:32.885Z,55.974998
2022-07-26T13:11:31.760Z,55.917
2022-07-26T13:12:41.557Z,56.049999
2022-07-26T13:13:49.279Z,56.120998
2022-07-26T13:14:57.875Z,55.848
2022-07-26T13:16:11.985Z,55.891998
2022-07-26T13:17:17.830Z,55.867001
2022-07-26T13:18:27.492Z,55.948002
2022-07-26T13:19:36.109Z,55.923
2022-07-26T13:20:44.734Z,55.974998
2022-07-26T13:21:54.381Z,55.969002
2022-07-26T13:23:01.973Z,56.013
2022-07-26T13:24:12.065Z,56.102001
2022-07-26T13:25:22.392Z,56.049999
2022-07-26T13:26:31.945Z,56.146
2022-07-26T13:27:44.870Z,56.064999
2022-07-26T13:28:53.078Z,56.203999
2022-07-26T13:30:02.712Z,56.254002
2022-07-26T13:31:12.432Z,56.452
2022-07-26T13:32:22.054Z,56.368999
2022-07-26T13:33:29.619Z,56.408001
2022-07-26T13:34:39.321Z,56.192001
2022-07-26T13:35:50.105Z,56.415001
2022-07-26T13:36:57.353Z,56.803001
2022-07-26T13:38:07.935Z,56.511002
2022-07-26T13:39:16.655Z,56.542
2022-07-26T13:40:31.180Z,56.388
2022-07-26T13:41:37.052Z,56.554001
2022-07-26T13:42:44.322Z,56.293999
2022-07-26T13:43:53.954Z,56.585999
2022-07-26T13:45:02.853Z,56.354
2022-07-26T13:46:11.536Z,56.471001
2022-07-26T13:47:20.127Z,56.585999
2022-07-26T13:48:28.864Z,56.644001
2022-07-26T13:49:38.491Z,56.561001
2022-07-26T13:50:47.077Z,56.752998
2022-07-26T13:51:55.634Z,56.657001
2022-07-26T13:53:05.316Z,56.657001
2022-07-26T13:54:14.204Z,56.759998
2022-07-26T13:55:22.583Z,56.596001
2022-07-26T13:56:31.267Z,56.692001
2022-07-26T13:57:49.495Z,56.530998
2022-07-26T13:58:51.456Z,56.748001
2022-07-26T13:59:59.166Z,56.825001
2022-07-26T14:01:06.706Z,57.036999
2022-07-26T14:02:16.397Z,56.620998
2022-07-26T14:03:26.157Z,56.556
2022-07-26T14:04:35.501Z,56.723
2022-07-26T14:05:45.085Z,56.997002
2022-07-26T14:06:53.717Z,56.997002
2022-07-26T14:08:03.326Z,57.238998
2022-07-26T14:09:11.249Z,57.214001
2022-07-26T14:10:19.594Z,57.081001
2022-07-26T14:11:29.211Z,56.939999
2022-07-26T14:12:37.811Z,56.995998
2022-07-26T14:13:47.475Z,56.722
2022-07-26T14:14:55.239Z,56.651001
2022-07-26T14:16:04.885Z,56.821999
2022-07-26T14:17:21.421Z,57.147999
2022-07-26T14:18:30.214Z,57.098
2022-07-26T14:19:38.698Z,57.136002
2022-07-26T14:20:48.816Z,57.123001
2022-07-26T14:21:58.684Z,57.165001
2022-07-26T14:23:06.809Z,57.176998
2022-07-26T14:24:17.102Z,57.056
2022-07-26T14:25:26.759Z,57.027
2022-07-26T14:26:36.383Z,57.084
2022-07-26T14:27:45.136Z,57.186001
2022-07-26T14:28:53.924Z,57.194
2022-07-26T14:30:02.551Z,57.125
2022-07-26T14:31:11.405Z,57.099998
2022-07-26T14:32:22.505Z,57.138
2022-07-26T14:33:31.756Z,57.138
2022-07-26T14:34:41.472Z,57.118999
2022-07-26T14:35:50.767Z,57.112999
2022-07-26T14:37:01.166Z,57.048
2022-07-26T14:38:11.761Z,57.041
2022-07-26T14:39:21.381Z,56.970001
2022-07-26T14:40:30.585Z,57.078999
2022-07-26T14:41:39.214Z,57.066002
2022-07-26T14:42:49.022Z,57.004002
2022-07-26T14:43:56.698Z,57.035
2022-07-26T14:45:05.268Z,57.054001
2022-07-26T14:46:14.879Z,57.028
2022-07-26T14:47:23.633Z,56.924999
2022-07-26T14:48:53.288Z,56.905998
2022-07-26T14:49:44.015Z,56.924999
2022-07-26T14:51:08.984Z,56.987999
2022-07-26T14:52:04.132Z,56.912998
2022-07-26T14:53:12.732Z,56.957001
2022-07-26T14:54:20.452Z,57.071999
2022-07-26T14:55:30.077Z,57.103001
2022-07-26T14:56:38.725Z,57.116001
2022-07-26T14:57:48.554Z,57.167999
2022-07-26T14:58:57.192Z,57.091
2022-07-26T15:00:06.140Z,56.981998
2022-07-26T15:01:15.757Z,57.014999
2022-07-26T15:02:23.393Z,57.040001
2022-07-26T15:03:30.903Z,57.034
2022-07-26T15:04:40.562Z,56.918999
2022-07-26T15:05:49.236Z,56.598999
2022-07-26T15:06:57.842Z,56.605999
2022-07-26T15:08:06.539Z,56.541
2022-07-26T15:09:15.105Z,55.764
2022-07-26T15:10:24.790Z,55.884998
2022-07-26T15:11:33.360Z,55.860001
2022-07-26T15:12:39.944Z,55.682999
2022-07-26T15:13:49.574Z,55.661999
2022-07-26T15:14:58.148Z,55.498001
2022-07-26T15:16:08.049Z,55.523998
2022-07-26T15:17:16.653Z,55.582001
2022-07-26T15:18:26.246Z,55.556999
2022-07-26T15:19:36.000Z,55.625999
2022-07-26T15:20:43.648Z,55.639999
2022-07-26T15:21:51.222Z,55.588001
2022-07-26T15:23:01.720Z,55.678001
2022-07-26T15:24:10.622Z,55.334999
2022-07-26T15:25:20.058Z,54.606998
2022-07-26T15:26:28.791Z,54.588001
2022-07-26T15:27:37.382Z,54.797001
2022-07-26T15:28:47.800Z,54.84
2022-07-26T15:29:58.356Z,55.151001
2022-07-26T15:31:02.918Z,55.263
2022-07-26T15:32:12.810Z,55.143002
2022-07-26T15:33:21.388Z,54.977001
2022-07-26T15:34:29.964Z,54.958
2022-07-26T15:35:39.588Z,54.32
2022-07-26T15:36:49.185Z,54.775002
2022-07-26T15:37:58.827Z,54.622002
2022-07-26T15:39:16.926Z,54.723
2022-07-26T15:40:16.944Z,54.824001
